Terminal Aerodrome Forecast
Issued by NWS Sterling, VA

Current Version | Previous Version | Graphics & Text | Print | Product List | Glossary Off
Versions: 1 2 3 4 5 6 7 8 9 10 11 12 13 14 15 16

000
FTUS41 KLWX 060955 AAB
TAFMRB
TAF AMD
KMRB 060955Z 0610/0706 34005KT 3SM BR FEW090
      TEMPO 0610/0612 1SM BR
     FM061300 03004KT P6SM SCT080
     FM061700 08007KT P6SM VCSH BKN050
     FM062300 VRB04KT P6SM BKN050=

USA.gov is the U.S. government's official web portal to all federal, state and local government web resources and services.